createdAt,value
2023-03-23T15:59:29.447Z,11.48
2023-03-23T16:01:57.742Z,11.45
2023-03-23T16:04:24.841Z,11.39
2023-03-23T16:06:53.495Z,11.18
2023-03-23T16:09:20.922Z,11.27
2023-03-23T16:11:48.028Z,11.21
2023-03-23T16:14:15.562Z,11.11
2023-03-23T16:16:49.662Z,11.45
2023-03-23T16:19:18.284Z,11.15
2023-03-23T16:21:45.489Z,11.08
2023-03-23T16:24:12.705Z,10.98
2023-03-23T16:26:40.968Z,10.63
2023-03-23T16:29:28.295Z,10.69
2023-03-23T16:32:01.342Z,11.48
2023-03-23T16:34:31.079Z,11.93
2023-03-23T16:36:58.027Z,12.10
2023-03-23T16:39:25.106Z,12.04
2023-03-23T16:41:52.119Z,11.79
2023-03-23T16:44:19.132Z,12.01
2023-03-23T16:46:46.214Z,11.90
2023-03-23T16:49:13.294Z,11.77
2023-03-23T16:51:41.751Z,11.97
2023-03-23T16:54:10.220Z,12.16
2023-03-23T16:56:37.673Z,12.22
2023-03-23T16:59:04.781Z,11.92
2023-03-23T17:01:31.960Z,11.73
2023-03-23T17:03:59.018Z,12.05
2023-03-23T17:06:26.169Z,12.19
2023-03-23T17:08:53.343Z,12.10
2023-03-23T17:11:20.370Z,12.10
2023-03-23T17:13:49.031Z,11.95
2023-03-23T17:16:16.173Z,11.89
2023-03-23T17:18:43.160Z,11.74
2023-03-23T17:21:10.364Z,11.39
2023-03-23T17:23:37.381Z,11.35
2023-03-23T17:26:04.617Z,11.41
2023-03-23T17:28:31.722Z,11.56
2023-03-23T17:30:58.851Z,11.16
2023-03-23T17:33:25.862Z,11.14
2023-03-23T17:35:54.132Z,10.87
2023-03-23T17:38:21.095Z,10.17
2023-03-23T17:40:48.279Z,9.77
2023-03-23T17:43:15.332Z,10.02
2023-03-23T17:45:44.380Z,10.27
2023-03-23T17:48:12.826Z,10.51
2023-03-23T17:50:40.106Z,10.52
2023-03-23T17:53:07.473Z,10.53
2023-03-23T17:55:34.628Z,10.40
2023-03-23T17:58:01.647Z,10.52
2023-03-23T18:00:28.882Z,10.48
2023-03-23T18:02:56.745Z,10.22
2023-03-23T18:05:24.794Z,10.08
2023-03-23T18:07:51.918Z,10.01
2023-03-23T18:10:19.333Z,10.08
2023-03-23T18:12:50.209Z,9.73
2023-03-23T18:15:17.379Z,9.91
2023-03-23T18:17:48.246Z,10.10
2023-03-23T18:20:15.373Z,10.02
2023-03-23T18:22:42.572Z,10.03
2023-03-23T18:25:09.665Z,10.10
2023-03-23T18:27:36.707Z,9.44
2023-03-23T18:30:04.072Z,9.59
2023-03-23T18:32:31.598Z,9.67
2023-03-23T18:34:58.655Z,9.49
2023-03-23T18:37:25.923Z,9.57
2023-03-23T18:39:53.823Z,9.59
2023-03-23T18:42:21.524Z,9.38
2023-03-23T18:44:48.584Z,9.31
2023-03-23T18:47:15.643Z,9.26
2023-03-23T18:49:42.863Z,9.36
2023-03-23T18:52:09.942Z,9.35
2023-03-23T18:54:38.430Z,9.43
2023-03-23T18:57:05.536Z,9.39
2023-03-23T18:59:34.610Z,9.07
2023-03-23T19:02:01.900Z,8.95
2023-03-23T19:04:31.782Z,9.26
2023-03-23T19:07:02.334Z,9.28
2023-03-23T19:09:29.807Z,9.38
2023-03-23T19:11:56.996Z,9.33
2023-03-23T19:14:24.036Z,9.37
2023-03-23T19:16:51.011Z,9.22
2023-03-23T19:19:18.472Z,9.24
2023-03-23T19:21:47.029Z,9.33
2023-03-23T19:24:14.360Z,9.27
2023-03-23T19:26:44.189Z,9.45
2023-03-23T19:29:25.252Z,9.09
2023-03-23T19:31:55.520Z,9.04
2023-03-23T19:34:24.104Z,9.10
2023-03-23T19:36:56.196Z,8.83
2023-03-23T19:39:26.922Z,8.92
2023-03-23T19:41:54.254Z,9.06
2023-03-23T19:44:21.841Z,8.98
2023-03-23T19:46:49.586Z,9.06
2023-03-23T19:49:17.019Z,9.34
2023-03-23T19:51:44.050Z,9.21
2023-03-23T19:54:13.278Z,9.38
2023-03-23T19:56:43.395Z,9.39
2023-03-23T19:59:16.417Z,9.24
2023-03-23T20:01:44.409Z,8.99
2023-03-23T20:04:12.349Z,9.05
2023-03-23T20:06:40.050Z,9.00
2023-03-23T20:09:07.394Z,8.94
2023-03-23T20:11:35.207Z,8.97
2023-03-23T20:14:03.026Z,8.93
2023-03-23T20:16:30.041Z,9.19
2023-03-23T20:19:00.375Z,9.07
2023-03-23T20:21:28.303Z,9.04
2023-03-23T20:23:57.282Z,8.79
2023-03-23T20:26:39.317Z,8.42
2023-03-23T20:29:07.956Z,8.66
2023-03-23T20:31:38.683Z,8.71
2023-03-23T20:34:09.350Z,8.79
2023-03-23T20:36:40.468Z,8.90
2023-03-23T20:39:10.924Z,8.95
2023-03-23T20:41:39.074Z,8.67
2023-03-23T20:44:08.406Z,8.55
2023-03-23T20:46:35.721Z,8.61
2023-03-23T20:49:03.169Z,8.52
2023-03-23T20:51:30.466Z,8.26
2023-03-23T20:53:57.465Z,8.08
2023-03-23T20:56:26.869Z,8.21
2023-03-23T20:58:53.893Z,8.17
2023-03-23T21:01:23.705Z,8.15
2023-03-23T21:03:52.619Z,8.27
2023-03-23T21:06:21.170Z,8.13
2023-03-23T21:08:48.407Z,8.20
2023-03-23T21:11:20.156Z,8.37
2023-03-23T21:13:47.887Z,8.46
2023-03-23T21:16:16.047Z,8.36
2023-03-23T21:18:43.140Z,8.47
2023-03-23T21:21:11.680Z,8.53
2023-03-23T21:23:39.419Z,8.19
2023-03-23T21:26:09.711Z,8.15
2023-03-23T21:28:36.912Z,8.06
2023-03-23T21:31:06.080Z,7.99
2023-03-23T21:33:33.712Z,7.80
2023-03-23T21:36:01.286Z,7.75
2023-03-23T21:38:29.394Z,7.84
2023-03-23T21:40:59.253Z,7.83
2023-03-23T21:43:27.841Z,7.65
2023-03-23T21:45:57.329Z,7.51
2023-03-23T21:48:25.373Z,7.36
2023-03-23T21:50:53.276Z,7.57
2023-03-23T21:53:20.707Z,7.22
2023-03-23T21:55:51.869Z,7.35
2023-03-23T21:58:20.728Z,7.16
2023-03-23T22:00:50.205Z,7.12
2023-03-23T22:03:22.737Z,7.03
2023-03-23T22:05:54.405Z,7.15
2023-03-23T22:08:24.604Z,7.11
2023-03-23T22:11:00.417Z,7.09
2023-03-23T22:13:32.834Z,7.30
2023-03-23T22:16:01.353Z,7.43
2023-03-23T22:18:29.679Z,7.29
2023-03-23T22:20:59.078Z,7.22
2023-03-23T22:23:27.152Z,7.22
2023-03-23T22:25:56.796Z,7.32
2023-03-23T22:28:26.621Z,7.34
2023-03-23T22:30:55.634Z,7.31
2023-03-23T22:33:26.795Z,7.04
2023-03-23T22:35:53.778Z,6.94
2023-03-23T22:38:20.996Z,7.13
2023-03-23T22:40:58.717Z,6.96
2023-03-23T22:43:27.065Z,7.13
2023-03-23T22:45:55.104Z,7.23
2023-03-23T22:48:24.015Z,7.16
2023-03-23T22:50:51.319Z,7.34
2023-03-23T22:53:18.890Z,7.42
2023-03-23T22:55:48.660Z,7.43
2023-03-23T22:58:16.800Z,7.48
2023-03-23T23:00:46.556Z,7.16
2023-03-23T23:03:13.886Z,6.96
2023-03-23T23:05:45.953Z,6.98
2023-03-23T23:08:15.215Z,7.31
2023-03-23T23:10:47.182Z,7.09
2023-03-23T23:13:14.852Z,6.82
2023-03-23T23:15:47.223Z,6.68
2023-03-23T23:18:14.659Z,6.77
2023-03-23T23:20:43.449Z,7.06
2023-03-23T23:23:10.925Z,6.73
2023-03-23T23:25:38.556Z,6.88
2023-03-23T23:28:06.611Z,6.84
2023-03-23T23:30:34.654Z,6.92
2023-03-23T23:33:01.884Z,6.75
2023-03-23T23:35:29.388Z,6.65
2023-03-23T23:37:56.441Z,6.64
2023-03-23T23:40:23.810Z,6.73
2023-03-23T23:42:52.589Z,6.84
2023-03-23T23:45:20.156Z,6.85
2023-03-23T23:47:47.600Z,7.07
2023-03-23T23:50:15.673Z,7.20
2023-03-23T23:52:44.918Z,7.45
2023-03-23T23:55:15.565Z,7.28
2023-03-23T23:57:43.819Z,7.21
